sensor_id;sensor_type;location;lat;lon;timestamp;temperature;humidity
2543;DHT22;1116;51.502;7.414;2022-12-13T00:01:56;-3.10;64.50
2543;DHT22;1116;51.502;7.414;2022-12-13T00:04:30;-2.50;64.50
2543;DHT22;1116;51.502;7.414;2022-12-13T00:07:01;-2.40;65.70
2543;DHT22;1116;51.502;7.414;2022-12-13T00:09:36;-2.80;64.10
2543;DHT22;1116;51.502;7.414;2022-12-13T00:12:10;-2.80;64.00
2543;DHT22;1116;51.502;7.414;2022-12-13T00:14:42;-2.60;65.70
2543;DHT22;1116;51.502;7.414;2022-12-13T00:17:16;-2.50;65.30
2543;DHT22;1116;51.502;7.414;2022-12-13T00:19:47;-2.90;64.30
2543;DHT22;1116;51.502;7.414;2022-12-13T00:22:18;-3.00;64.20
2543;DHT22;1116;51.502;7.414;2022-12-13T00:24:52;-2.30;63.80
2543;DHT22;1116;51.502;7.414;2022-12-13T00:27:25;-2.50;65.80
2543;DHT22;1116;51.502;7.414;2022-12-13T00:29:56;-2.50;65.70
2543;DHT22;1116;51.502;7.414;2022-12-13T00:32:27;-2.60;62.30
2543;DHT22;1116;51.502;7.414;2022-12-13T00:35:00;-2.40;65.10
2543;DHT22;1116;51.502;7.414;2022-12-13T00:37:31;-2.70;63.90
2543;DHT22;1116;51.502;7.414;2022-12-13T00:40:06;-2.40;62.70
2543;DHT22;1116;51.502;7.414;2022-12-13T00:42:38;-2.90;63.30
2543;DHT22;1116;51.502;7.414;2022-12-13T00:45:09;-2.90;65.10
2543;DHT22;1116;51.502;7.414;2022-12-13T00:47:40;-2.90;62.80
2543;DHT22;1116;51.502;7.414;2022-12-13T00:50:11;-2.60;63.10
2543;DHT22;1116;51.502;7.414;2022-12-13T00:52:42;-2.50;63.20
2543;DHT22;1116;51.502;7.414;2022-12-13T00:55:17;-2.60;62.00
2543;DHT22;1116;51.502;7.414;2022-12-13T00:57:48;-2.70;61.90
2543;DHT22;1116;51.502;7.414;2022-12-13T01:00:19;-2.80;64.50
2543;DHT22;1116;51.502;7.414;2022-12-13T01:02:51;-3.30;62.80
2543;DHT22;1116;51.502;7.414;2022-12-13T01:05:23;-3.10;62.50
2543;DHT22;1116;51.502;7.414;2022-12-13T01:08:14;-2.70;63.00
2543;DHT22;1116;51.502;7.414;2022-12-13T01:10:49;-3.30;64.70
2543;DHT22;1116;51.502;7.414;2022-12-13T01:13:22;-3.20;61.70
2543;DHT22;1116;51.502;7.414;2022-12-13T01:15:53;-3.20;62.00
2543;DHT22;1116;51.502;7.414;2022-12-13T01:18:25;-3.50;63.00
2543;DHT22;1116;51.502;7.414;2022-12-13T01:20:57;-3.00;62.80
2543;DHT22;1116;51.502;7.414;2022-12-13T01:26:18;-3.30;61.50
2543;DHT22;1116;51.502;7.414;2022-12-13T01:28:49;-2.90;61.90
2543;DHT22;1116;51.502;7.414;2022-12-13T01:31:20;-3.60;62.50
2543;DHT22;1116;51.502;7.414;2022-12-13T01:33:54;-3.00;64.90
2543;DHT22;1116;51.502;7.414;2022-12-13T01:36:25;-3.40;62.90
2543;DHT22;1116;51.502;7.414;2022-12-13T01:38:56;-3.00;65.00
2543;DHT22;1116;51.502;7.414;2022-12-13T01:41:32;-3.30;62.80
2543;DHT22;1116;51.502;7.414;2022-12-13T01:44:04;-3.00;63.10
2543;DHT22;1116;51.502;7.414;2022-12-13T01:46:35;-3.30;63.00
2543;DHT22;1116;51.502;7.414;2022-12-13T01:49:10;-3.20;64.70
2543;DHT22;1116;51.502;7.414;2022-12-13T01:51:50;-3.70;59.40
2543;DHT22;1116;51.502;7.414;2022-12-13T01:54:25;-3.30;64.20
2543;DHT22;1116;51.502;7.414;2022-12-13T01:57:06;-3.00;66.50
2543;DHT22;1116;51.502;7.414;2022-12-13T01:59:40;-3.30;64.40
2543;DHT22;1116;51.502;7.414;2022-12-13T02:02:13;-3.60;65.50
2543;DHT22;1116;51.502;7.414;2022-12-13T02:04:48;-3.30;64.60
2543;DHT22;1116;51.502;7.414;2022-12-13T02:10:24;-3.30;62.70
2543;DHT22;1116;51.502;7.414;2022-12-13T02:12:58;-3.20;64.40
2543;DHT22;1116;51.502;7.414;2022-12-13T02:15:39;-3.70;59.80
2543;DHT22;1116;51.502;7.414;2022-12-13T02:18:22;-3.90;61.00
2543;DHT22;1116;51.502;7.414;2022-12-13T02:21:20;-3.10;62.70
2543;DHT22;1116;51.502;7.414;2022-12-13T02:24:17;-3.30;62.10
2543;DHT22;1116;51.502;7.414;2022-12-13T02:27:10;-3.30;65.50
2543;DHT22;1116;51.502;7.414;2022-12-13T02:30:24;-3.80;63.10
2543;DHT22;1116;51.502;7.414;2022-12-13T02:33:05;-3.40;61.40
2543;DHT22;1116;51.502;7.414;2022-12-13T02:35:52;-3.20;62.50
2543;DHT22;1116;51.502;7.414;2022-12-13T02:38:34;-3.40;61.40
2543;DHT22;1116;51.502;7.414;2022-12-13T02:41:14;-3.50;61.40
2543;DHT22;1116;51.502;7.414;2022-12-13T02:43:48;-3.80;62.20
2543;DHT22;1116;51.502;7.414;2022-12-13T02:46:34;-3.50;61.40
2543;DHT22;1116;51.502;7.414;2022-12-13T02:49:11;-3.20;62.30
2543;DHT22;1116;51.502;7.414;2022-12-13T02:51:44;-3.40;61.40
2543;DHT22;1116;51.502;7.414;2022-12-13T02:54:15;-4.00;61.00
2543;DHT22;1116;51.502;7.414;2022-12-13T02:56:52;-3.70;59.80
2543;DHT22;1116;51.502;7.414;2022-12-13T02:59:26;-3.70;59.30
2543;DHT22;1116;51.502;7.414;2022-12-13T03:02:09;-4.00;61.50
2543;DHT22;1116;51.502;7.414;2022-12-13T03:05:05;-3.50;62.10
2543;DHT22;1116;51.502;7.414;2022-12-13T03:07:57;-3.20;61.60
2543;DHT22;1116;51.502;7.414;2022-12-13T03:10:36;-3.50;60.80
2543;DHT22;1116;51.502;7.414;2022-12-13T03:13:17;-3.60;59.30
2543;DHT22;1116;51.502;7.414;2022-12-13T03:16:12;-3.70;60.70
2543;DHT22;1116;51.502;7.414;2022-12-13T03:18:57;-3.70;61.20
2543;DHT22;1116;51.502;7.414;2022-12-13T03:21:29;-3.40;62.10
2543;DHT22;1116;51.502;7.414;2022-12-13T03:24:16;-3.70;61.20
2543;DHT22;1116;51.502;7.414;2022-12-13T03:26:48;-3.60;61.30
2543;DHT22;1116;51.502;7.414;2022-12-13T03:29:19;-3.90;61.00
2543;DHT22;1116;51.502;7.414;2022-12-13T03:31:52;-3.50;61.20
2543;DHT22;1116;51.502;7.414;2022-12-13T03:34:25;-3.70;61.30
2543;DHT22;1116;51.502;7.414;2022-12-13T03:37:11;-4.00;60.90
2543;DHT22;1116;51.502;7.414;2022-12-13T03:39:44;-3.60;59.80
2543;DHT22;1116;51.502;7.414;2022-12-13T03:42:15;-4.10;59.10
2543;DHT22;1116;51.502;7.414;2022-12-13T03:44:46;-3.50;60.10
2543;DHT22;1116;51.502;7.414;2022-12-13T03:47:17;-4.20;59.60
2543;DHT22;1116;51.502;7.414;2022-12-13T03:49:50;-3.50;59.50
2543;DHT22;1116;51.502;7.414;2022-12-13T03:52:22;-4.20;59.50
2543;DHT22;1116;51.502;7.414;2022-12-13T03:54:56;-3.80;59.70
2543;DHT22;1116;51.502;7.414;2022-12-13T03:57:27;-3.40;59.70
2543;DHT22;1116;51.502;7.414;2022-12-13T04:00:02;-3.50;59.50
2543;DHT22;1116;51.502;7.414;2022-12-13T04:02:35;-3.90;59.80
2543;DHT22;1116;51.502;7.414;2022-12-13T04:05:08;-3.90;60.50
2543;DHT22;1116;51.502;7.414;2022-12-13T04:07:40;-3.50;59.60
2543;DHT22;1116;51.502;7.414;2022-12-13T04:10:15;-4.10;58.60
2543;DHT22;1116;51.502;7.414;2022-12-13T04:12:53;-4.00;58.20
2543;DHT22;1116;51.502;7.414;2022-12-13T04:15:37;-4.20;57.30
2543;DHT22;1116;51.502;7.414;2022-12-13T04:18:16;-4.20;57.40
2543;DHT22;1116;51.502;7.414;2022-12-13T04:20:51;-4.40;57.90
2543;DHT22;1116;51.502;7.414;2022-12-13T04:26:01;-3.90;56.60
2543;DHT22;1116;51.502;7.414;2022-12-13T04:28:32;-4.10;59.60
2543;DHT22;1116;51.502;7.414;2022-12-13T04:31:03;-4.00;58.90
2543;DHT22;1116;51.502;7.414;2022-12-13T04:33:35;-3.80;58.90
2543;DHT22;1116;51.502;7.414;2022-12-13T04:36:10;-4.30;59.60
2543;DHT22;1116;51.502;7.414;2022-12-13T04:39:03;-3.90;59.30
2543;DHT22;1116;51.502;7.414;2022-12-13T04:41:50;-4.00;58.40
2543;DHT22;1116;51.502;7.414;2022-12-13T04:44:21;-4.10;59.80
2543;DHT22;1116;51.502;7.414;2022-12-13T04:46:56;-4.00;57.80
2543;DHT22;1116;51.502;7.414;2022-12-13T04:49:29;-3.70;59.60
2543;DHT22;1116;51.502;7.414;2022-12-13T04:52:03;-3.90;61.00
2543;DHT22;1116;51.502;7.414;2022-12-13T04:54:34;-4.60;60.40
2543;DHT22;1116;51.502;7.414;2022-12-13T04:57:06;-4.40;59.40
2543;DHT22;1116;51.502;7.414;2022-12-13T04:59:38;-3.80;59.40
2543;DHT22;1116;51.502;7.414;2022-12-13T05:02:09;-3.90;56.80
2543;DHT22;1116;51.502;7.414;2022-12-13T05:04:50;-3.80;58.30
2543;DHT22;1116;51.502;7.414;2022-12-13T05:07:25;-4.40;58.20
2543;DHT22;1116;51.502;7.414;2022-12-13T05:09:56;-3.80;58.50
2543;DHT22;1116;51.502;7.414;2022-12-13T05:12:27;-4.60;56.40
2543;DHT22;1116;51.502;7.414;2022-12-13T05:14:58;-4.60;55.70
2543;DHT22;1116;51.502;7.414;2022-12-13T05:17:29;-4.60;54.30
2543;DHT22;1116;51.502;7.414;2022-12-13T05:20:01;-4.60;58.00
2543;DHT22;1116;51.502;7.414;2022-12-13T05:22:38;-3.80;58.90
2543;DHT22;1116;51.502;7.414;2022-12-13T05:25:09;-4.20;59.90
2543;DHT22;1116;51.502;7.414;2022-12-13T05:27:40;-4.70;58.90
2543;DHT22;1116;51.502;7.414;2022-12-13T05:30:12;-4.20;59.30
2543;DHT22;1116;51.502;7.414;2022-12-13T05:32:43;-4.10;60.80
2543;DHT22;1116;51.502;7.414;2022-12-13T05:35:15;-3.90;60.20
2543;DHT22;1116;51.502;7.414;2022-12-13T05:37:53;-4.20;59.20
2543;DHT22;1116;51.502;7.414;2022-12-13T05:40:26;-4.20;60.10
2543;DHT22;1116;51.502;7.414;2022-12-13T05:42:58;-4.20;59.50
2543;DHT22;1116;51.502;7.414;2022-12-13T05:48:06;-4.20;59.70
2543;DHT22;1116;51.502;7.414;2022-12-13T05:50:37;-4.10;59.40
2543;DHT22;1116;51.502;7.414;2022-12-13T05:53:11;-3.90;57.60
2543;DHT22;1116;51.502;7.414;2022-12-13T06:04:48;-4.30;58.40
2543;DHT22;1116;51.502;7.414;2022-12-13T06:07:22;-4.70;58.10
2543;DHT22;1116;51.502;7.414;2022-12-13T06:09:55;-4.70;57.90
2543;DHT22;1116;51.502;7.414;2022-12-13T06:12:37;-4.60;57.50
2543;DHT22;1116;51.502;7.414;2022-12-13T06:15:10;-4.70;57.80
2543;DHT22;1116;51.502;7.414;2022-12-13T06:17:49;-4.30;59.10
2543;DHT22;1116;51.502;7.414;2022-12-13T06:20:20;-4.40;57.00
2543;DHT22;1116;51.502;7.414;2022-12-13T06:22:52;-4.50;57.80
2543;DHT22;1116;51.502;7.414;2022-12-13T06:25:25;-4.20;59.10
2543;DHT22;1116;51.502;7.414;2022-12-13T06:27:58;-4.40;60.20
2543;DHT22;1116;51.502;7.414;2022-12-13T06:30:32;-4.30;60.00
2543;DHT22;1116;51.502;7.414;2022-12-13T06:33:09;-4.80;58.00
2543;DHT22;1116;51.502;7.414;2022-12-13T06:35:42;-4.30;55.00
2543;DHT22;1116;51.502;7.414;2022-12-13T06:38:13;-4.40;57.60
2543;DHT22;1116;51.502;7.414;2022-12-13T06:43:33;-4.50;55.80
2543;DHT22;1116;51.502;7.414;2022-12-13T06:46:04;-4.40;56.00
2543;DHT22;1116;51.502;7.414;2022-12-13T06:48:36;-4.50;58.10
2543;DHT22;1116;51.502;7.414;2022-12-13T06:51:08;-4.30;58.90
2543;DHT22;1116;51.502;7.414;2022-12-13T06:53:49;-4.50;58.40
2543;DHT22;1116;51.502;7.414;2022-12-13T06:56:21;-4.50;58.00
2543;DHT22;1116;51.502;7.414;2022-12-13T06:58:55;-4.40;56.20
2543;DHT22;1116;51.502;7.414;2022-12-13T07:01:29;-4.90;56.50
2543;DHT22;1116;51.502;7.414;2022-12-13T07:04:05;-4.80;56.00
2543;DHT22;1116;51.502;7.414;2022-12-13T07:06:58;-4.50;56.20
2543;DHT22;1116;51.502;7.414;2022-12-13T07:09:30;-4.50;57.00
2543;DHT22;1116;51.502;7.414;2022-12-13T07:12:01;-5.00;56.90
2543;DHT22;1116;51.502;7.414;2022-12-13T07:14:35;-4.30;57.20
2543;DHT22;1116;51.502;7.414;2022-12-13T07:19:57;-4.40;57.40
2543;DHT22;1116;51.502;7.414;2022-12-13T07:22:28;-5.00;55.30
2543;DHT22;1116;51.502;7.414;2022-12-13T07:25:03;-4.20;56.10
2543;DHT22;1116;51.502;7.414;2022-12-13T07:28:03;-4.70;56.10
2543;DHT22;1116;51.502;7.414;2022-12-13T07:30:39;-4.90;57.30
2543;DHT22;1116;51.502;7.414;2022-12-13T07:33:11;-4.70;56.30
2543;DHT22;1116;51.502;7.414;2022-12-13T07:35:49;-4.50;56.50
2543;DHT22;1116;51.502;7.414;2022-12-13T07:38:22;-4.60;56.80
2543;DHT22;1116;51.502;7.414;2022-12-13T07:40:55;-4.60;57.60
2543;DHT22;1116;51.502;7.414;2022-12-13T07:43:25;-4.20;55.80
2543;DHT22;1116;51.502;7.414;2022-12-13T07:46:00;-4.50;54.70
2543;DHT22;1116;51.502;7.414;2022-12-13T07:48:33;-4.80;56.30
2543;DHT22;1116;51.502;7.414;2022-12-13T07:51:07;-5.00;54.80
2543;DHT22;1116;51.502;7.414;2022-12-13T07:53:39;-4.50;57.30
2543;DHT22;1116;51.502;7.414;2022-12-13T07:56:11;-5.10;57.00
2543;DHT22;1116;51.502;7.414;2022-12-13T07:58:44;-5.00;55.90
2543;DHT22;1116;51.502;7.414;2022-12-13T08:01:18;-4.20;56.60
2543;DHT22;1116;51.502;7.414;2022-12-13T08:03:48;-5.10;54.10
2543;DHT22;1116;51.502;7.414;2022-12-13T08:06:19;-4.30;57.30
2543;DHT22;1116;51.502;7.414;2022-12-13T08:08:54;-4.20;57.80
2543;DHT22;1116;51.502;7.414;2022-12-13T08:11:25;-4.20;57.80
2543;DHT22;1116;51.502;7.414;2022-12-13T08:13:55;-4.50;56.20
2543;DHT22;1116;51.502;7.414;2022-12-13T08:16:29;-4.40;59.40
2543;DHT22;1116;51.502;7.414;2022-12-13T08:19:02;-4.50;59.80
2543;DHT22;1116;51.502;7.414;2022-12-13T08:21:34;-4.80;55.60
2543;DHT22;1116;51.502;7.414;2022-12-13T08:24:23;-4.30;54.80
2543;DHT22;1116;51.502;7.414;2022-12-13T08:26:56;-4.50;56.40
2543;DHT22;1116;51.502;7.414;2022-12-13T08:29:28;-4.20;58.20
2543;DHT22;1116;51.502;7.414;2022-12-13T08:32:06;-4.40;61.50
2543;DHT22;1116;51.502;7.414;2022-12-13T08:34:38;-4.60;60.70
2543;DHT22;1116;51.502;7.414;2022-12-13T08:37:09;-4.60;59.30
2543;DHT22;1116;51.502;7.414;2022-12-13T08:39:40;-4.10;60.00
2543;DHT22;1116;51.502;7.414;2022-12-13T08:42:13;-4.10;60.90
2543;DHT22;1116;51.502;7.414;2022-12-13T08:44:48;-3.70;63.60
2543;DHT22;1116;51.502;7.414;2022-12-13T08:47:25;-3.60;65.30
2543;DHT22;1116;51.502;7.414;2022-12-13T08:50:03;-4.30;62.60
2543;DHT22;1116;51.502;7.414;2022-12-13T08:52:35;-3.50;64.20
2543;DHT22;1116;51.502;7.414;2022-12-13T08:55:09;-3.20;62.50
2543;DHT22;1116;51.502;7.414;2022-12-13T09:03:30;-3.20;63.10
2543;DHT22;1116;51.502;7.414;2022-12-13T09:06:06;-3.20;62.70
2543;DHT22;1116;51.502;7.414;2022-12-13T09:08:40;-2.60;59.30
2543;DHT22;1116;51.502;7.414;2022-12-13T09:11:18;-3.60;57.90
2543;DHT22;1116;51.502;7.414;2022-12-13T09:14:03;-2.80;58.70
2543;DHT22;1116;51.502;7.414;2022-12-13T09:16:41;-3.20;63.80
2543;DHT22;1116;51.502;7.414;2022-12-13T09:19:21;-3.10;62.60
2543;DHT22;1116;51.502;7.414;2022-12-13T09:21:54;-2.80;62.00
2543;DHT22;1116;51.502;7.414;2022-12-13T09:24:29;-2.70;62.10
2543;DHT22;1116;51.502;7.414;2022-12-13T09:27:04;-2.90;60.20
2543;DHT22;1116;51.502;7.414;2022-12-13T09:29:54;-3.00;59.30
2543;DHT22;1116;51.502;7.414;2022-12-13T09:32:32;-2.30;61.40
2543;DHT22;1116;51.502;7.414;2022-12-13T09:37:55;-2.70;60.70
2543;DHT22;1116;51.502;7.414;2022-12-13T09:40:26;-2.20;59.60
2543;DHT22;1116;51.502;7.414;2022-12-13T09:43:05;-2.50;52.80
2543;DHT22;1116;51.502;7.414;2022-12-13T09:45:50;-2.40;51.60
2543;DHT22;1116;51.502;7.414;2022-12-13T09:48:28;-2.30;49.60
2543;DHT22;1116;51.502;7.414;2022-12-13T09:51:02;-1.80;53.20
2543;DHT22;1116;51.502;7.414;2022-12-13T09:53:56;-2.20;51.30
2543;DHT22;1116;51.502;7.414;2022-12-13T09:56:27;-2.20;49.20
2543;DHT22;1116;51.502;7.414;2022-12-13T09:59:00;-1.80;48.10
2543;DHT22;1116;51.502;7.414;2022-12-13T10:01:32;-2.00;43.30
2543;DHT22;1116;51.502;7.414;2022-12-13T10:04:10;-1.90;43.50
2543;DHT22;1116;51.502;7.414;2022-12-13T10:06:42;-2.10;43.00
2543;DHT22;1116;51.502;7.414;2022-12-13T10:09:22;-1.60;42.70
2543;DHT22;1116;51.502;7.414;2022-12-13T10:11:53;-1.40;46.30
2543;DHT22;1116;51.502;7.414;2022-12-13T10:14:29;-1.70;47.50
2543;DHT22;1116;51.502;7.414;2022-12-13T10:17:05;-1.80;48.10
2543;DHT22;1116;51.502;7.414;2022-12-13T10:19:40;-1.60;45.30
2543;DHT22;1116;51.502;7.414;2022-12-13T10:24:57;-1.50;41.60
2543;DHT22;1116;51.502;7.414;2022-12-13T10:27:34;-1.10;37.10
2543;DHT22;1116;51.502;7.414;2022-12-13T10:30:10;-1.40;37.60
2543;DHT22;1116;51.502;7.414;2022-12-13T10:32:48;-1.40;38.40
2543;DHT22;1116;51.502;7.414;2022-12-13T10:35:25;-1.30;40.30
2543;DHT22;1116;51.502;7.414;2022-12-13T10:37:58;-1.40;38.90
2543;DHT22;1116;51.502;7.414;2022-12-13T10:40:34;-1.10;38.00
2543;DHT22;1116;51.502;7.414;2022-12-13T10:43:11;-1.30;35.20
2543;DHT22;1116;51.502;7.414;2022-12-13T10:45:55;-1.10;34.00
2543;DHT22;1116;51.502;7.414;2022-12-13T10:48:35;-1.10;33.20
2543;DHT22;1116;51.502;7.414;2022-12-13T10:51:09;-1.00;30.20
2543;DHT22;1116;51.502;7.414;2022-12-13T10:53:45;-1.00;29.10
2543;DHT22;1116;51.502;7.414;2022-12-13T10:56:20;-0.90;30.90
2543;DHT22;1116;51.502;7.414;2022-12-13T10:59:08;-0.70;29.00
2543;DHT22;1116;51.502;7.414;2022-12-13T11:01:45;-0.80;29.10
2543;DHT22;1116;51.502;7.414;2022-12-13T11:04:25;-0.80;28.10
2543;DHT22;1116;51.502;7.414;2022-12-13T11:06:58;-0.80;30.60
2543;DHT22;1116;51.502;7.414;2022-12-13T11:09:31;-0.70;28.80
2543;DHT22;1116;51.502;7.414;2022-12-13T11:12:14;-0.30;28.20
2543;DHT22;1116;51.502;7.414;2022-12-13T11:14:49;-0.70;29.50
2543;DHT22;1116;51.502;7.414;2022-12-13T11:17:24;-0.60;25.90
2543;DHT22;1116;51.502;7.414;2022-12-13T11:20:06;-0.50;27.20
2543;DHT22;1116;51.502;7.414;2022-12-13T11:22:45;-0.60;29.20
2543;DHT22;1116;51.502;7.414;2022-12-13T11:25:22;-0.40;28.20
2543;DHT22;1116;51.502;7.414;2022-12-13T11:28:06;-0.50;26.40
2543;DHT22;1116;51.502;7.414;2022-12-13T11:31:04;-0.10;27.90
2543;DHT22;1116;51.502;7.414;2022-12-13T11:33:53;-0.20;29.00
2543;DHT22;1116;51.502;7.414;2022-12-13T11:36:34;-0.50;27.30
2543;DHT22;1116;51.502;7.414;2022-12-13T11:39:15;-0.40;24.80
2543;DHT22;1116;51.502;7.414;2022-12-13T11:41:52;-0.10;23.30
2543;DHT22;1116;51.502;7.414;2022-12-13T11:44:38;0.30;23.60
2543;DHT22;1116;51.502;7.414;2022-12-13T11:47:18;-0.20;22.90
2543;DHT22;1116;51.502;7.414;2022-12-13T11:49:52;0.20;23.20
2543;DHT22;1116;51.502;7.414;2022-12-13T11:52:26;0.00;19.90
2543;DHT22;1116;51.502;7.414;2022-12-13T11:55:00;-0.10;22.20
2543;DHT22;1116;51.502;7.414;2022-12-13T11:57:41;0.30;22.50
2543;DHT22;1116;51.502;7.414;2022-12-13T12:00:28;0.20;22.10
2543;DHT22;1116;51.502;7.414;2022-12-13T12:06:10;0.10;21.50
2543;DHT22;1116;51.502;7.414;2022-12-13T12:08:45;0.50;22.80
2543;DHT22;1116;51.502;7.414;2022-12-13T12:11:25;0.40;20.50
2543;DHT22;1116;51.502;7.414;2022-12-13T12:14:00;0.10;20.30
2543;DHT22;1116;51.502;7.414;2022-12-13T12:16:40;0.10;19.20
2543;DHT22;1116;51.502;7.414;2022-12-13T12:19:18;0.00;17.50
2543;DHT22;1116;51.502;7.414;2022-12-13T12:22:04;0.20;19.00
2543;DHT22;1116;51.502;7.414;2022-12-13T12:24:53;0.20;17.60
2543;DHT22;1116;51.502;7.414;2022-12-13T12:27:34;0.30;16.30
2543;DHT22;1116;51.502;7.414;2022-12-13T12:30:11;0.20;12.70
2543;DHT22;1116;51.502;7.414;2022-12-13T12:32:58;0.20;13.20
2543;DHT22;1116;51.502;7.414;2022-12-13T12:36:02;0.40;14.30
2543;DHT22;1116;51.502;7.414;2022-12-13T12:41:47;0.40;15.20
2543;DHT22;1116;51.502;7.414;2022-12-13T12:44:37;0.40;13.30
2543;DHT22;1116;51.502;7.414;2022-12-13T12:47:22;0.50;15.30
2543;DHT22;1116;51.502;7.414;2022-12-13T12:50:24;0.50;13.30
2543;DHT22;1116;51.502;7.414;2022-12-13T12:53:02;0.40;11.30
2543;DHT22;1116;51.502;7.414;2022-12-13T12:55:45;0.50;12.10
2543;DHT22;1116;51.502;7.414;2022-12-13T12:58:22;0.30;12.60
2543;DHT22;1116;51.502;7.414;2022-12-13T13:01:10;0.30;9.40
2543;DHT22;1116;51.502;7.414;2022-12-13T13:03:43;0.50;9.20
2543;DHT22;1116;51.502;7.414;2022-12-13T13:06:20;0.70;10.90
2543;DHT22;1116;51.502;7.414;2022-12-13T13:08:55;0.30;13.70
2543;DHT22;1116;51.502;7.414;2022-12-13T13:11:33;0.40;13.10
2543;DHT22;1116;51.502;7.414;2022-12-13T13:14:26;0.40;10.70
2543;DHT22;1116;51.502;7.414;2022-12-13T13:20:19;0.20;10.80
2543;DHT22;1116;51.502;7.414;2022-12-13T13:22:54;0.20;10.70
2543;DHT22;1116;51.502;7.414;2022-12-13T13:25:55;0.20;9.50
2543;DHT22;1116;51.502;7.414;2022-12-13T13:28:46;0.30;11.20
2543;DHT22;1116;51.502;7.414;2022-12-13T13:31:17;0.20;11.80
2543;DHT22;1116;51.502;7.414;2022-12-13T13:36:46;0.20;12.90
2543;DHT22;1116;51.502;7.414;2022-12-13T13:39:53;0.20;11.60
2543;DHT22;1116;51.502;7.414;2022-12-13T13:42:25;0.30;10.40
2543;DHT22;1116;51.502;7.414;2022-12-13T13:45:18;0.20;11.30
2543;DHT22;1116;51.502;7.414;2022-12-13T13:48:08;0.00;13.80
2543;DHT22;1116;51.502;7.414;2022-12-13T13:51:18;0.30;13.00
2543;DHT22;1116;51.502;7.414;2022-12-13T13:54:18;0.30;10.10
2543;DHT22;1116;51.502;7.414;2022-12-13T13:57:28;0.70;11.50
2543;DHT22;1116;51.502;7.414;2022-12-13T14:06:55;0.50;12.80
2543;DHT22;1116;51.502;7.414;2022-12-13T14:19:14;0.40;19.80
2543;DHT22;1116;51.502;7.414;2022-12-13T14:22:07;0.30;17.70
2543;DHT22;1116;51.502;7.414;2022-12-13T14:24:51;0.30;19.80
2543;DHT22;1116;51.502;7.414;2022-12-13T14:27:38;0.30;19.50
2543;DHT22;1116;51.502;7.414;2022-12-13T14:30:12;0.30;20.10
2543;DHT22;1116;51.502;7.414;2022-12-13T14:32:58;0.40;22.10
2543;DHT22;1116;51.502;7.414;2022-12-13T14:35:37;0.20;20.20
2543;DHT22;1116;51.502;7.414;2022-12-13T14:38:27;0.00;21.60
2543;DHT22;1116;51.502;7.414;2022-12-13T14:41:01;0.10;20.30
2543;DHT22;1116;51.502;7.414;2022-12-13T14:43:34;0.10;19.60
2543;DHT22;1116;51.502;7.414;2022-12-13T14:46:06;0.10;18.60
2543;DHT22;1116;51.502;7.414;2022-12-13T14:48:46;0.10;21.00
2543;DHT22;1116;51.502;7.414;2022-12-13T14:51:29;0.10;21.20
2543;DHT22;1116;51.502;7.414;2022-12-13T14:54:03;0.00;22.90
2543;DHT22;1116;51.502;7.414;2022-12-13T14:56:34;0.00;22.90
2543;DHT22;1116;51.502;7.414;2022-12-13T14:59:11;-0.10;23.30
2543;DHT22;1116;51.502;7.414;2022-12-13T15:01:42;-0.10;22.20
2543;DHT22;1116;51.502;7.414;2022-12-13T15:07:20;-0.20;23.90
2543;DHT22;1116;51.502;7.414;2022-12-13T15:09:59;0.20;22.80
2543;DHT22;1116;51.502;7.414;2022-12-13T15:12:31;0.10;23.00
2543;DHT22;1116;51.502;7.414;2022-12-13T15:15:05;0.00;24.20
2543;DHT22;1116;51.502;7.414;2022-12-13T15:17:38;-0.30;23.90
2543;DHT22;1116;51.502;7.414;2022-12-13T15:20:24;-0.30;24.30
2543;DHT22;1116;51.502;7.414;2022-12-13T15:23:00;-0.30;24.30
2543;DHT22;1116;51.502;7.414;2022-12-13T15:25:34;-0.40;25.60
2543;DHT22;1116;51.502;7.414;2022-12-13T15:28:08;-0.10;25.40
2543;DHT22;1116;51.502;7.414;2022-12-13T15:30:48;-0.30;25.60
2543;DHT22;1116;51.502;7.414;2022-12-13T15:33:22;-0.10;25.80
2543;DHT22;1116;51.502;7.414;2022-12-13T15:36:04;0.00;25.80
2543;DHT22;1116;51.502;7.414;2022-12-13T15:38:42;-0.50;25.50
2543;DHT22;1116;51.502;7.414;2022-12-13T15:41:19;-0.20;26.60
2543;DHT22;1116;51.502;7.414;2022-12-13T15:43:55;-0.20;27.70
2543;DHT22;1116;51.502;7.414;2022-12-13T15:46:30;-0.60;26.40
2543;DHT22;1116;51.502;7.414;2022-12-13T15:49:04;-0.70;25.40
2543;DHT22;1116;51.502;7.414;2022-12-13T15:51:52;-0.70;27.60
2543;DHT22;1116;51.502;7.414;2022-12-13T15:54:27;-0.40;28.10
2543;DHT22;1116;51.502;7.414;2022-12-13T15:57:02;-0.70;27.60
2543;DHT22;1116;51.502;7.414;2022-12-13T15:59:35;-1.00;28.00
2543;DHT22;1116;51.502;7.414;2022-12-13T16:02:14;-0.70;27.70
2543;DHT22;1116;51.502;7.414;2022-12-13T16:04:47;-0.80;28.50
2543;DHT22;1116;51.502;7.414;2022-12-13T16:07:23;-0.80;28.80
2543;DHT22;1116;51.502;7.414;2022-12-13T16:09:59;-0.40;29.10
2543;DHT22;1116;51.502;7.414;2022-12-13T16:12:36;-1.10;28.70
2543;DHT22;1116;51.502;7.414;2022-12-13T16:15:18;-0.90;29.00
2543;DHT22;1116;51.502;7.414;2022-12-13T16:18:06;-0.40;29.60
2543;DHT22;1116;51.502;7.414;2022-12-13T16:20:41;-0.90;29.30
2543;DHT22;1116;51.502;7.414;2022-12-13T16:23:13;-0.90;29.80
2543;DHT22;1116;51.502;7.414;2022-12-13T16:25:57;-0.50;30.10
2543;DHT22;1116;51.502;7.414;2022-12-13T16:28:35;-0.60;30.00
2543;DHT22;1116;51.502;7.414;2022-12-13T16:31:19;-1.00;30.00
2543;DHT22;1116;51.502;7.414;2022-12-13T16:33:51;-0.70;29.60
2543;DHT22;1116;51.502;7.414;2022-12-13T16:39:21;-0.60;31.60
2543;DHT22;1116;51.502;7.414;2022-12-13T16:41:55;-0.70;32.60
2543;DHT22;1116;51.502;7.414;2022-12-13T16:44:35;-1.00;32.00
2543;DHT22;1116;51.502;7.414;2022-12-13T16:47:09;-1.00;31.50
2543;DHT22;1116;51.502;7.414;2022-12-13T16:50:05;-1.10;30.20
2543;DHT22;1116;51.502;7.414;2022-12-13T16:52:39;-1.10;31.60
2543;DHT22;1116;51.502;7.414;2022-12-13T16:55:12;-1.10;32.30
2543;DHT22;1116;51.502;7.414;2022-12-13T16:57:54;-0.90;31.80
2543;DHT22;1116;51.502;7.414;2022-12-13T17:00:29;-1.10;31.80
2543;DHT22;1116;51.502;7.414;2022-12-13T17:03:00;-0.80;33.50
2543;DHT22;1116;51.502;7.414;2022-12-13T17:05:32;-1.10;33.60
2543;DHT22;1116;51.502;7.414;2022-12-13T17:08:03;-1.10;32.10
2543;DHT22;1116;51.502;7.414;2022-12-13T17:10:35;-1.10;33.00
2543;DHT22;1116;51.502;7.414;2022-12-13T17:13:09;-1.60;32.00
2543;DHT22;1116;51.502;7.414;2022-12-13T17:15:42;-1.00;32.90
2543;DHT22;1116;51.502;7.414;2022-12-13T17:18:26;-1.20;32.40
2543;DHT22;1116;51.502;7.414;2022-12-13T17:26:54;-1.20;32.80
2543;DHT22;1116;51.502;7.414;2022-12-13T17:29:31;-0.90;32.90
2543;DHT22;1116;51.502;7.414;2022-12-13T17:32:02;-1.00;33.10
2543;DHT22;1116;51.502;7.414;2022-12-13T17:34:36;-0.90;34.20
2543;DHT22;1116;51.502;7.414;2022-12-13T17:37:07;-1.30;32.50
2543;DHT22;1116;51.502;7.414;2022-12-13T17:39:38;-1.70;33.10
2543;DHT22;1116;51.502;7.414;2022-12-13T17:42:09;-1.40;32.30
2543;DHT22;1116;51.502;7.414;2022-12-13T17:44:45;-1.30;33.20
2543;DHT22;1116;51.502;7.414;2022-12-13T17:47:16;-1.40;30.40
2543;DHT22;1116;51.502;7.414;2022-12-13T17:49:47;-1.60;30.30
2543;DHT22;1116;51.502;7.414;2022-12-13T17:52:18;-1.20;32.20
2543;DHT22;1116;51.502;7.414;2022-12-13T17:54:48;-1.30;29.70
2543;DHT22;1116;51.502;7.414;2022-12-13T17:57:20;-1.60;30.00
2543;DHT22;1116;51.502;7.414;2022-12-13T17:59:56;-1.40;29.60
2543;DHT22;1116;51.502;7.414;2022-12-13T18:02:27;-1.30;30.80
2543;DHT22;1116;51.502;7.414;2022-12-13T22:09:02;-1.60;41.00
2543;DHT22;1116;51.502;7.414;2022-12-13T22:11:34;-1.80;41.50
2543;DHT22;1116;51.502;7.414;2022-12-13T22:14:05;-1.10;42.00
2543;DHT22;1116;51.502;7.414;2022-12-13T22:16:38;-1.50;40.60
2543;DHT22;1116;51.502;7.414;2022-12-13T22:19:11;-1.50;40.90
2543;DHT22;1116;51.502;7.414;2022-12-13T22:21:42;-1.50;40.50
2543;DHT22;1116;51.502;7.414;2022-12-13T22:24:19;-1.50;42.30
2543;DHT22;1116;51.502;7.414;2022-12-13T22:26:49;-1.50;41.30
2543;DHT22;1116;51.502;7.414;2022-12-13T22:29:20;-1.30;42.60